sensor_id;sensor_type;location;lat;lon;timestamp;P1;durP1;ratioP1;P2;durP2;ratioP2
78916;SDS011;68315;48.608;11.436;2023-09-18T00:00:46;7.78;;;6.97;;
78916;SDS011;68315;48.608;11.436;2023-09-18T00:03:14;7.63;;;6.03;;
78916;SDS011;68315;48.608;11.436;2023-09-18T00:05:40;7.28;;;6.13;;
78916;SDS011;68315;48.608;11.436;2023-09-18T00:08:05;8.23;;;7.47;;
78916;SDS011;68315;48.608;11.436;2023-09-18T00:10:31;8.20;;;7.40;;
78916;SDS011;68315;48.608;11.436;2023-09-18T00:12:56;7.68;;;6.95;;
78916;SDS011;68315;48.608;11.436;2023-09-18T00:15:22;8.45;;;7.13;;
78916;SDS011;68315;48.608;11.436;2023-09-18T00:17:47;7.35;;;6.65;;
78916;SDS011;68315;48.608;11.436;2023-09-18T00:20:12;8.90;;;6.47;;
78916;SDS011;68315;48.608;11.436;2023-09-18T00:22:38;6.90;;;6.25;;
78916;SDS011;68315;48.608;11.436;2023-09-18T00:25:04;7.93;;;6.82;;
78916;SDS011;68315;48.608;11.436;2023-09-18T00:27:29;8.15;;;7.45;;
78916;SDS011;68315;48.608;11.436;2023-09-18T00:29:54;7.20;;;6.45;;
78916;SDS011;68315;48.608;11.436;2023-09-18T00:32:20;7.00;;;6.18;;
78916;SDS011;68315;48.608;11.436;2023-09-18T00:34:45;9.05;;;7.47;;
78916;SDS011;68315;48.608;11.436;2023-09-18T00:37:10;8.10;;;7.27;;
78916;SDS011;68315;48.608;11.436;2023-09-18T00:39:37;7.55;;;6.75;;
78916;SDS011;68315;48.608;11.436;2023-09-18T00:42:02;8.20;;;7.40;;
78916;SDS011;68315;48.608;11.436;2023-09-18T00:44:28;7.25;;;6.53;;
78916;SDS011;68315;48.608;11.436;2023-09-18T00:46:53;8.30;;;7.13;;
78916;SDS011;68315;48.608;11.436;2023-09-18T00:49:20;8.13;;;7.30;;
78916;SDS011;68315;48.608;11.436;2023-09-18T00:51:47;5.80;;;5.20;;
78916;SDS011;68315;48.608;11.436;2023-09-18T00:54:14;6.40;;;5.60;;
78916;SDS011;68315;48.608;11.436;2023-09-18T00:56:41;5.65;;;5.15;;
78916;SDS011;68315;48.608;11.436;2023-09-18T00:59:07;6.90;;;6.28;;
78916;SDS011;68315;48.608;11.436;2023-09-18T01:01:33;7.90;;;6.70;;
78916;SDS011;68315;48.608;11.436;2023-09-18T01:03:58;6.65;;;6.03;;
78916;SDS011;68315;48.608;11.436;2023-09-18T01:06:24;6.75;;;6.15;;
78916;SDS011;68315;48.608;11.436;2023-09-18T01:08:52;5.53;;;5.03;;
78916;SDS011;68315;48.608;11.436;2023-09-18T01:11:20;5.93;;;5.38;;
78916;SDS011;68315;48.608;11.436;2023-09-18T01:13:52;5.82;;;5.22;;
78916;SDS011;68315;48.608;11.436;2023-09-18T01:16:24;6.18;;;5.57;;
78916;SDS011;68315;48.608;11.436;2023-09-18T01:18:55;6.65;;;4.60;;
78916;SDS011;68315;48.608;11.436;2023-09-18T01:21:20;4.82;;;4.43;;
78916;SDS011;68315;48.608;11.436;2023-09-18T01:23:46;5.07;;;4.65;;
78916;SDS011;68315;48.608;11.436;2023-09-18T01:26:11;5.55;;;5.05;;
78916;SDS011;68315;48.608;11.436;2023-09-18T01:28:36;5.10;;;4.70;;
78916;SDS011;68315;48.608;11.436;2023-09-18T01:31:02;6.68;;;6.03;;
78916;SDS011;68315;48.608;11.436;2023-09-18T01:33:28;5.93;;;5.40;;
78916;SDS011;68315;48.608;11.436;2023-09-18T01:35:54;7.50;;;6.80;;
78916;SDS011;68315;48.608;11.436;2023-09-18T01:38:21;6.35;;;5.75;;
78916;SDS011;68315;48.608;11.436;2023-09-18T01:40:48;6.07;;;5.47;;
78916;SDS011;68315;48.608;11.436;2023-09-18T01:43:14;7.63;;;6.93;;
78916;SDS011;68315;48.608;11.436;2023-09-18T01:45:39;7.38;;;6.57;;
78916;SDS011;68315;48.608;11.436;2023-09-18T01:48:05;7.93;;;7.13;;
78916;SDS011;68315;48.608;11.436;2023-09-18T01:50:31;7.85;;;7.05;;
78916;SDS011;68315;48.608;11.436;2023-09-18T01:52:58;8.00;;;7.20;;
78916;SDS011;68315;48.608;11.436;2023-09-18T01:55:23;7.22;;;5.97;;
78916;SDS011;68315;48.608;11.436;2023-09-18T01:57:49;6.32;;;5.68;;
78916;SDS011;68315;48.608;11.436;2023-09-18T02:00:14;6.45;;;5.85;;
78916;SDS011;68315;48.608;11.436;2023-09-18T02:02:40;6.82;;;6.18;;
78916;SDS011;68315;48.608;11.436;2023-09-18T02:05:05;6.25;;;5.65;;
78916;SDS011;68315;48.608;11.436;2023-09-18T02:07:31;6.20;;;5.60;;
78916;SDS011;68315;48.608;11.436;2023-09-18T02:09:56;7.97;;;7.18;;
78916;SDS011;68315;48.608;11.436;2023-09-18T02:12:22;7.18;;;6.45;;
78916;SDS011;68315;48.608;11.436;2023-09-18T02:14:47;8.13;;;7.25;;
78916;SDS011;68315;48.608;11.436;2023-09-18T02:17:12;7.90;;;6.70;;
78916;SDS011;68315;48.608;11.436;2023-09-18T02:19:38;8.20;;;7.40;;
78916;SDS011;68315;48.608;11.436;2023-09-18T02:22:03;7.22;;;6.55;;
78916;SDS011;68315;48.608;11.436;2023-09-18T02:24:28;7.35;;;6.65;;
78916;SDS011;68315;48.608;11.436;2023-09-18T02:26:54;8.63;;;7.70;;
78916;SDS011;68315;48.608;11.436;2023-09-18T02:29:19;8.57;;;7.65;;
78916;SDS011;68315;48.608;11.436;2023-09-18T02:31:44;7.50;;;6.70;;
78916;SDS011;68315;48.608;11.436;2023-09-18T02:34:09;7.07;;;6.15;;
78916;SDS011;68315;48.608;11.436;2023-09-18T02:36:35;7.07;;;6.28;;
78916;SDS011;68315;48.608;11.436;2023-09-18T02:39:00;8.00;;;7.28;;
78916;SDS011;68315;48.608;11.436;2023-09-18T02:41:26;7.53;;;6.82;;
78916;SDS011;68315;48.608;11.436;2023-09-18T02:43:51;7.38;;;6.55;;
78916;SDS011;68315;48.608;11.436;2023-09-18T02:46:16;6.90;;;6.20;;
78916;SDS011;68315;48.608;11.436;2023-09-18T02:48:42;5.80;;;5.30;;
78916;SDS011;68315;48.608;11.436;2023-09-18T02:51:07;5.90;;;5.40;;
78916;SDS011;68315;48.608;11.436;2023-09-18T02:53:32;6.25;;;5.60;;
78916;SDS011;68315;48.608;11.436;2023-09-18T02:55:58;7.00;;;6.32;;
78916;SDS011;68315;48.608;11.436;2023-09-18T02:58:24;6.85;;;6.22;;
78916;SDS011;68315;48.608;11.436;2023-09-18T03:00:51;6.35;;;5.75;;
78916;SDS011;68315;48.608;11.436;2023-09-18T03:03:17;6.50;;;5.82;;
78916;SDS011;68315;48.608;11.436;2023-09-18T03:05:43;7.80;;;7.00;;
78916;SDS011;68315;48.608;11.436;2023-09-18T03:08:09;7.63;;;6.07;;
78916;SDS011;68315;48.608;11.436;2023-09-18T03:10:36;6.88;;;6.18;;
78916;SDS011;68315;48.608;11.436;2023-09-18T03:13:02;7.03;;;6.32;;
78916;SDS011;68315;48.608;11.436;2023-09-18T03:15:28;7.22;;;6.53;;
78916;SDS011;68315;48.608;11.436;2023-09-18T03:17:54;7.03;;;6.18;;
78916;SDS011;68315;48.608;11.436;2023-09-18T03:20:23;6.57;;;5.97;;
78916;SDS011;68315;48.608;11.436;2023-09-18T03:22:49;7.30;;;6.22;;
78916;SDS011;68315;48.608;11.436;2023-09-18T03:25:15;7.55;;;6.30;;
78916;SDS011;68315;48.608;11.436;2023-09-18T03:27:40;7.07;;;6.40;;
78916;SDS011;68315;48.608;11.436;2023-09-18T03:30:06;6.18;;;5.57;;
78916;SDS011;68315;48.608;11.436;2023-09-18T03:32:32;7.53;;;6.55;;
78916;SDS011;68315;48.608;11.436;2023-09-18T03:34:57;7.63;;;6.82;;
78916;SDS011;68315;48.608;11.436;2023-09-18T03:37:22;6.93;;;6.13;;
78916;SDS011;68315;48.608;11.436;2023-09-18T03:39:47;7.40;;;6.70;;
78916;SDS011;68315;48.608;11.436;2023-09-18T03:42:13;6.60;;;5.63;;
78916;SDS011;68315;48.608;11.436;2023-09-18T03:44:38;6.53;;;5.82;;
78916;SDS011;68315;48.608;11.436;2023-09-18T03:47:03;7.50;;;6.60;;
78916;SDS011;68315;48.608;11.436;2023-09-18T03:49:29;7.88;;;7.05;;
78916;SDS011;68315;48.608;11.436;2023-09-18T03:51:54;6.97;;;6.28;;
78916;SDS011;68315;48.608;11.436;2023-09-18T03:54:20;7.63;;;6.88;;
78916;SDS011;68315;48.608;11.436;2023-09-18T03:56:45;8.23;;;6.82;;
78916;SDS011;68315;48.608;11.436;2023-09-18T03:59:11;6.82;;;6.22;;
78916;SDS011;68315;48.608;11.436;2023-09-18T04:01:37;6.55;;;5.95;;
78916;SDS011;68315;48.608;11.436;2023-09-18T04:04:02;7.07;;;6.38;;
78916;SDS011;68315;48.608;11.436;2023-09-18T04:06:35;8.55;;;6.90;;
78916;SDS011;68315;48.608;11.436;2023-09-18T04:09:02;8.43;;;7.60;;
78916;SDS011;68315;48.608;11.436;2023-09-18T04:11:27;8.48;;;7.55;;
78916;SDS011;68315;48.608;11.436;2023-09-18T04:13:57;6.95;;;6.35;;
78916;SDS011;68315;48.608;11.436;2023-09-18T04:16:23;6.35;;;5.70;;
78916;SDS011;68315;48.608;11.436;2023-09-18T04:18:48;6.93;;;6.25;;
78916;SDS011;68315;48.608;11.436;2023-09-18T04:21:14;6.43;;;5.80;;
78916;SDS011;68315;48.608;11.436;2023-09-18T04:23:39;5.10;;;4.60;;
78916;SDS011;68315;48.608;11.436;2023-09-18T04:26:05;4.47;;;3.92;;
78916;SDS011;68315;48.608;11.436;2023-09-18T04:28:30;4.00;;;3.60;;
78916;SDS011;68315;48.608;11.436;2023-09-18T04:30:55;4.32;;;3.90;;
78916;SDS011;68315;48.608;11.436;2023-09-18T04:33:20;5.93;;;5.43;;
78916;SDS011;68315;48.608;11.436;2023-09-18T04:35:46;7.75;;;7.00;;
78916;SDS011;68315;48.608;11.436;2023-09-18T04:38:12;5.78;;;5.20;;
78916;SDS011;68315;48.608;11.436;2023-09-18T04:40:40;6.95;;;6.00;;
78916;SDS011;68315;48.608;11.436;2023-09-18T04:43:05;7.22;;;5.78;;
78916;SDS011;68315;48.608;11.436;2023-09-18T04:45:30;5.70;;;5.20;;
78916;SDS011;68315;48.608;11.436;2023-09-18T04:47:56;5.32;;;4.82;;
78916;SDS011;68315;48.608;11.436;2023-09-18T04:50:22;5.53;;;5.03;;
78916;SDS011;68315;48.608;11.436;2023-09-18T04:52:47;6.90;;;6.20;;
78916;SDS011;68315;48.608;11.436;2023-09-18T04:55:13;8.05;;;6.72;;
78916;SDS011;68315;48.608;11.436;2023-09-18T04:57:39;5.85;;;5.35;;
78916;SDS011;68315;48.608;11.436;2023-09-18T05:00:04;7.05;;;6.35;;
78916;SDS011;68315;48.608;11.436;2023-09-18T05:02:34;6.03;;;5.43;;
78916;SDS011;68315;48.608;11.436;2023-09-18T05:04:59;7.18;;;6.43;;
78916;SDS011;68315;48.608;11.436;2023-09-18T05:07:25;6.43;;;5.55;;
78916;SDS011;68315;48.608;11.436;2023-09-18T05:09:50;6.00;;;5.40;;
78916;SDS011;68315;48.608;11.436;2023-09-18T05:12:16;5.80;;;5.20;;
78916;SDS011;68315;48.608;11.436;2023-09-18T05:14:41;6.65;;;5.93;;
78916;SDS011;68315;48.608;11.436;2023-09-18T05:17:09;9.40;;;7.80;;
78916;SDS011;68315;48.608;11.436;2023-09-18T05:19:36;10.77;;;9.65;;
78916;SDS011;68315;48.608;11.436;2023-09-18T05:22:01;8.70;;;7.70;;
78916;SDS011;68315;48.608;11.436;2023-09-18T05:24:26;10.02;;;8.13;;
78916;SDS011;68315;48.608;11.436;2023-09-18T05:26:52;8.55;;;7.50;;
78916;SDS011;68315;48.608;11.436;2023-09-18T05:29:18;7.30;;;6.57;;
78916;SDS011;68315;48.608;11.436;2023-09-18T05:31:43;8.13;;;7.28;;
78916;SDS011;68315;48.608;11.436;2023-09-18T05:34:09;8.80;;;7.20;;
78916;SDS011;68315;48.608;11.436;2023-09-18T05:36:34;8.88;;;7.57;;
78916;SDS011;68315;48.608;11.436;2023-09-18T05:39:00;7.95;;;7.15;;
78916;SDS011;68315;48.608;11.436;2023-09-18T05:41:25;8.13;;;6.35;;
78916;SDS011;68315;48.608;11.436;2023-09-18T05:43:53;8.02;;;7.22;;
78916;SDS011;68315;48.608;11.436;2023-09-18T05:46:18;7.07;;;6.18;;
78916;SDS011;68315;48.608;11.436;2023-09-18T05:48:43;6.80;;;6.15;;
78916;SDS011;68315;48.608;11.436;2023-09-18T05:51:09;7.18;;;5.80;;
78916;SDS011;68315;48.608;11.436;2023-09-18T05:53:34;6.68;;;5.35;;
78916;SDS011;68315;48.608;11.436;2023-09-18T05:55:59;6.17;;;5.60;;
78916;SDS011;68315;48.608;11.436;2023-09-18T05:58:28;5.50;;;5.00;;
78916;SDS011;68315;48.608;11.436;2023-09-18T06:00:56;7.45;;;6.30;;
78916;SDS011;68315;48.608;11.436;2023-09-18T06:03:22;6.88;;;6.28;;
78916;SDS011;68315;48.608;11.436;2023-09-18T06:05:48;6.53;;;5.93;;
78916;SDS011;68315;48.608;11.436;2023-09-18T06:08:13;6.28;;;5.68;;
78916;SDS011;68315;48.608;11.436;2023-09-18T06:10:38;6.93;;;6.22;;
78916;SDS011;68315;48.608;11.436;2023-09-18T06:13:04;5.00;;;4.60;;
78916;SDS011;68315;48.608;11.436;2023-09-18T06:15:31;9.25;;;8.32;;
78916;SDS011;68315;48.608;11.436;2023-09-18T06:17:56;8.27;;;7.45;;
78916;SDS011;68315;48.608;11.436;2023-09-18T06:20:21;7.63;;;6.78;;
78916;SDS011;68315;48.608;11.436;2023-09-18T06:22:47;6.53;;;5.93;;
78916;SDS011;68315;48.608;11.436;2023-09-18T06:25:12;6.35;;;5.68;;
78916;SDS011;68315;48.608;11.436;2023-09-18T06:27:38;5.28;;;4.78;;
78916;SDS011;68315;48.608;11.436;2023-09-18T06:30:04;8.60;;;7.60;;
78916;SDS011;68315;48.608;11.436;2023-09-18T06:32:30;8.25;;;7.32;;
78916;SDS011;68315;48.608;11.436;2023-09-18T06:34:55;7.20;;;6.50;;
78916;SDS011;68315;48.608;11.436;2023-09-18T06:37:22;8.18;;;7.18;;
78916;SDS011;68315;48.608;11.436;2023-09-18T06:39:47;7.55;;;6.75;;
78916;SDS011;68315;48.608;11.436;2023-09-18T06:42:13;7.75;;;7.00;;
78916;SDS011;68315;48.608;11.436;2023-09-18T06:44:38;7.37;;;6.67;;
78916;SDS011;68315;48.608;11.436;2023-09-18T06:47:04;7.30;;;6.57;;
78916;SDS011;68315;48.608;11.436;2023-09-18T06:49:29;7.43;;;6.47;;
78916;SDS011;68315;48.608;11.436;2023-09-18T06:51:55;10.18;;;7.65;;
78916;SDS011;68315;48.608;11.436;2023-09-18T06:54:21;8.40;;;7.60;;
78916;SDS011;68315;48.608;11.436;2023-09-18T06:56:46;7.47;;;6.75;;
78916;SDS011;68315;48.608;11.436;2023-09-18T06:59:11;7.83;;;7.03;;
78916;SDS011;68315;48.608;11.436;2023-09-18T07:01:37;9.93;;;8.45;;
78916;SDS011;68315;48.608;11.436;2023-09-18T07:04:02;8.75;;;7.50;;
78916;SDS011;68315;48.608;11.436;2023-09-18T07:06:29;9.75;;;8.73;;
78916;SDS011;68315;48.608;11.436;2023-09-18T07:08:54;8.23;;;7.47;;
78916;SDS011;68315;48.608;11.436;2023-09-18T07:11:20;11.13;;;9.48;;
78916;SDS011;68315;48.608;11.436;2023-09-18T07:13:45;10.20;;;8.60;;
78916;SDS011;68315;48.608;11.436;2023-09-18T07:16:10;11.32;;;9.77;;
78916;SDS011;68315;48.608;11.436;2023-09-18T07:18:36;9.80;;;8.85;;
78916;SDS011;68315;48.608;11.436;2023-09-18T07:21:01;10.48;;;9.48;;
78916;SDS011;68315;48.608;11.436;2023-09-18T07:23:27;11.00;;;9.85;;
78916;SDS011;68315;48.608;11.436;2023-09-18T07:25:52;10.85;;;9.85;;
78916;SDS011;68315;48.608;11.436;2023-09-18T07:28:18;10.68;;;9.57;;
78916;SDS011;68315;48.608;11.436;2023-09-18T07:30:44;10.43;;;9.43;;
78916;SDS011;68315;48.608;11.436;2023-09-18T07:33:10;10.32;;;9.32;;
78916;SDS011;68315;48.608;11.436;2023-09-18T07:35:36;14.15;;;12.70;;
78916;SDS011;68315;48.608;11.436;2023-09-18T07:38:01;10.27;;;9.20;;
78916;SDS011;68315;48.608;11.436;2023-09-18T07:40:27;8.98;;;8.07;;
78916;SDS011;68315;48.608;11.436;2023-09-18T07:42:52;9.55;;;7.97;;
78916;SDS011;68315;48.608;11.436;2023-09-18T07:45:18;7.60;;;6.90;;
78916;SDS011;68315;48.608;11.436;2023-09-18T07:47:43;9.40;;;8.50;;
78916;SDS011;68315;48.608;11.436;2023-09-18T07:50:09;8.43;;;7.55;;
78916;SDS011;68315;48.608;11.436;2023-09-18T07:52:34;8.82;;;7.93;;
78916;SDS011;68315;48.608;11.436;2023-09-18T07:54:59;10.90;;;8.47;;
78916;SDS011;68315;48.608;11.436;2023-09-18T07:57:25;9.53;;;8.60;;
78916;SDS011;68315;48.608;11.436;2023-09-18T07:59:53;8.18;;;7.38;;
78916;SDS011;68315;48.608;11.436;2023-09-18T08:02:18;9.88;;;8.45;;
78916;SDS011;68315;48.608;11.436;2023-09-18T08:04:44;8.55;;;7.65;;
78916;SDS011;68315;48.608;11.436;2023-09-18T08:07:09;7.80;;;7.10;;
78916;SDS011;68315;48.608;11.436;2023-09-18T08:09:35;8.73;;;7.78;;
78916;SDS011;68315;48.608;11.436;2023-09-18T08:12:01;8.25;;;7.45;;
78916;SDS011;68315;48.608;11.436;2023-09-18T08:14:27;7.95;;;7.20;;
78916;SDS011;68315;48.608;11.436;2023-09-18T08:16:56;7.53;;;6.78;;
78916;SDS011;68315;48.608;11.436;2023-09-18T08:19:25;7.47;;;6.70;;
78916;SDS011;68315;48.608;11.436;2023-09-18T08:21:54;6.85;;;6.25;;
78916;SDS011;68315;48.608;11.436;2023-09-18T08:24:20;9.10;;;8.18;;
78916;SDS011;68315;48.608;11.436;2023-09-18T08:26:46;11.35;;;9.32;;
78916;SDS011;68315;48.608;11.436;2023-09-18T08:29:12;8.40;;;7.60;;
78916;SDS011;68315;48.608;11.436;2023-09-18T08:31:37;7.38;;;6.68;;
78916;SDS011;68315;48.608;11.436;2023-09-18T08:34:02;7.57;;;6.87;;
78916;SDS011;68315;48.608;11.436;2023-09-18T08:36:28;7.43;;;6.70;;
78916;SDS011;68315;48.608;11.436;2023-09-18T08:38:55;6.97;;;6.38;;
78916;SDS011;68315;48.608;11.436;2023-09-18T08:41:20;9.18;;;8.27;;
78916;SDS011;68315;48.608;11.436;2023-09-18T08:43:50;9.40;;;8.50;;
78916;SDS011;68315;48.608;11.436;2023-09-18T08:46:16;9.50;;;8.35;;
78916;SDS011;68315;48.608;11.436;2023-09-18T08:48:42;8.55;;;7.38;;
78916;SDS011;68315;48.608;11.436;2023-09-18T08:51:09;9.38;;;8.10;;
78916;SDS011;68315;48.608;11.436;2023-09-18T08:53:36;8.43;;;7.50;;
78916;SDS011;68315;48.608;11.436;2023-09-18T08:56:04;9.73;;;8.18;;
78916;SDS011;68315;48.608;11.436;2023-09-18T08:58:31;9.70;;;7.60;;
78916;SDS011;68315;48.608;11.436;2023-09-18T09:00:59;7.07;;;6.38;;
78916;SDS011;68315;48.608;11.436;2023-09-18T09:03:26;7.38;;;6.68;;
78916;SDS011;68315;48.608;11.436;2023-09-18T09:05:51;7.93;;;7.03;;
78916;SDS011;68315;48.608;11.436;2023-09-18T09:08:17;7.95;;;6.65;;
78916;SDS011;68315;48.608;11.436;2023-09-18T09:10:42;7.97;;;6.90;;
78916;SDS011;68315;48.608;11.436;2023-09-18T09:13:07;13.80;;;7.25;;
78916;SDS011;68315;48.608;11.436;2023-09-18T09:15:45;7.27;;;6.57;;
78916;SDS011;68315;48.608;11.436;2023-09-18T09:18:13;7.55;;;6.60;;
78916;SDS011;68315;48.608;11.436;2023-09-18T09:20:45;6.47;;;5.80;;
78916;SDS011;68315;48.608;11.436;2023-09-18T09:23:22;9.10;;;5.97;;
78916;SDS011;68315;48.608;11.436;2023-09-18T09:25:48;6.40;;;5.80;;
78916;SDS011;68315;48.608;11.436;2023-09-18T09:28:13;7.05;;;6.32;;
78916;SDS011;68315;48.608;11.436;2023-09-18T09:30:39;8.40;;;6.18;;
78916;SDS011;68315;48.608;11.436;2023-09-18T09:33:05;7.47;;;5.60;;
78916;SDS011;68315;48.608;11.436;2023-09-18T09:35:31;8.05;;;6.30;;
78916;SDS011;68315;48.608;11.436;2023-09-18T09:38:08;7.05;;;5.93;;
78916;SDS011;68315;48.608;11.436;2023-09-18T09:40:35;7.13;;;6.03;;
78916;SDS011;68315;48.608;11.436;2023-09-18T09:43:04;10.85;;;6.15;;
78916;SDS011;68315;48.608;11.436;2023-09-18T09:45:33;6.55;;;5.85;;
78916;SDS011;68315;48.608;11.436;2023-09-18T09:48:01;7.97;;;6.15;;
78916;SDS011;68315;48.608;11.436;2023-09-18T09:50:27;8.00;;;6.03;;
78916;SDS011;68315;48.608;11.436;2023-09-18T09:52:53;5.88;;;5.13;;
78916;SDS011;68315;48.608;11.436;2023-09-18T09:57:51;9.55;;;6.00;;
78916;SDS011;68315;48.608;11.436;2023-09-18T10:00:17;8.73;;;6.30;;
78916;SDS011;68315;48.608;11.436;2023-09-18T10:02:54;5.95;;;5.30;;
78916;SDS011;68315;48.608;11.436;2023-09-18T10:05:22;8.95;;;5.45;;
78916;SDS011;68315;48.608;11.436;2023-09-18T10:07:51;7.70;;;5.05;;
78916;SDS011;68315;48.608;11.436;2023-09-18T10:10:17;6.43;;;4.63;;
78916;SDS011;68315;48.608;11.436;2023-09-18T10:12:43;7.32;;;4.40;;
78916;SDS011;68315;48.608;11.436;2023-09-18T10:15:09;6.32;;;4.22;;
78916;SDS011;68315;48.608;11.436;2023-09-18T10:17:37;8.52;;;5.38;;
78916;SDS011;68315;48.608;11.436;2023-09-18T10:20:11;6.82;;;4.40;;
78916;SDS011;68315;48.608;11.436;2023-09-18T10:22:48;7.65;;;4.32;;
78916;SDS011;68315;48.608;11.436;2023-09-18T10:25:34;8.98;;;4.40;;
78916;SDS011;68315;48.608;11.436;2023-09-18T10:28:00;10.88;;;4.35;;
78916;SDS011;68315;48.608;11.436;2023-09-18T10:30:29;11.10;;;4.85;;
78916;SDS011;68315;48.608;11.436;2023-09-18T10:32:54;9.57;;;4.95;;
78916;SDS011;68315;48.608;11.436;2023-09-18T10:35:22;8.30;;;4.38;;
78916;SDS011;68315;48.608;11.436;2023-09-18T10:37:48;10.52;;;5.40;;
78916;SDS011;68315;48.608;11.436;2023-09-18T10:40:16;7.05;;;3.67;;
78916;SDS011;68315;48.608;11.436;2023-09-18T10:42:42;7.45;;;3.05;;
78916;SDS011;68315;48.608;11.436;2023-09-18T10:45:08;5.40;;;2.70;;
78916;SDS011;68315;48.608;11.436;2023-09-18T10:47:35;6.32;;;2.83;;
78916;SDS011;68315;48.608;11.436;2023-09-18T10:50:03;4.97;;;2.75;;
78916;SDS011;68315;48.608;11.436;2023-09-18T10:52:29;7.03;;;3.00;;
78916;SDS011;68315;48.608;11.436;2023-09-18T10:54:55;4.78;;;2.80;;
78916;SDS011;68315;48.608;11.436;2023-09-18T10:57:20;9.63;;;3.85;;
78916;SDS011;68315;48.608;11.436;2023-09-18T10:59:46;6.60;;;3.30;;
78916;SDS011;68315;48.608;11.436;2023-09-18T11:02:15;6.35;;;3.25;;
78916;SDS011;68315;48.608;11.436;2023-09-18T11:04:41;8.48;;;3.30;;
78916;SDS011;68315;48.608;11.436;2023-09-18T11:07:07;8.10;;;2.70;;
78916;SDS011;68315;48.608;11.436;2023-09-18T11:09:40;5.13;;;2.80;;
78916;SDS011;68315;48.608;11.436;2023-09-18T11:12:08;5.50;;;2.30;;
78916;SDS011;68315;48.608;11.436;2023-09-18T11:14:47;6.85;;;2.22;;
78916;SDS011;68315;48.608;11.436;2023-09-18T11:17:29;6.72;;;2.20;;
78916;SDS011;68315;48.608;11.436;2023-09-18T11:22:49;8.63;;;2.22;;
78916;SDS011;68315;48.608;11.436;2023-09-18T11:27:55;10.25;;;2.20;;
78916;SDS011;68315;48.608;11.436;2023-09-18T11:30:21;6.28;;;2.35;;
78916;SDS011;68315;48.608;11.436;2023-09-18T11:32:46;7.28;;;2.30;;
78916;SDS011;68315;48.608;11.436;2023-09-18T11:35:12;8.48;;;2.50;;
78916;SDS011;68315;48.608;11.436;2023-09-18T11:37:38;9.57;;;2.25;;
78916;SDS011;68315;48.608;11.436;2023-09-18T11:40:04;10.05;;;2.17;;
78916;SDS011;68315;48.608;11.436;2023-09-18T11:42:33;5.95;;;2.17;;
78916;SDS011;68315;48.608;11.436;2023-09-18T11:44:58;6.77;;;2.53;;
78916;SDS011;68315;48.608;11.436;2023-09-18T11:47:24;8.93;;;2.13;;
78916;SDS011;68315;48.608;11.436;2023-09-18T11:49:54;6.90;;;2.22;;
78916;SDS011;68315;48.608;11.436;2023-09-18T11:52:23;9.00;;;1.52;;
78916;SDS011;68315;48.608;11.436;2023-09-18T11:54:50;5.15;;;1.88;;
78916;SDS011;68315;48.608;11.436;2023-09-18T11:57:17;5.40;;;2.10;;
78916;SDS011;68315;48.608;11.436;2023-09-18T11:59:45;7.60;;;1.98;;
78916;SDS011;68315;48.608;11.436;2023-09-18T12:02:11;6.47;;;1.95;;
78916;SDS011;68315;48.608;11.436;2023-09-18T12:04:45;8.20;;;1.67;;
78916;SDS011;68315;48.608;11.436;2023-09-18T12:07:12;6.32;;;1.80;;
78916;SDS011;68315;48.608;11.436;2023-09-18T12:09:37;8.68;;;1.88;;
78916;SDS011;68315;48.608;11.436;2023-09-18T12:12:05;4.35;;;1.40;;
78916;SDS011;68315;48.608;11.436;2023-09-18T12:14:32;7.43;;;1.70;;
78916;SDS011;68315;48.608;11.436;2023-09-18T12:16:58;6.35;;;1.83;;
78916;SDS011;68315;48.608;11.436;2023-09-18T12:19:25;4.68;;;1.63;;
78916;SDS011;68315;48.608;11.436;2023-09-18T12:21:51;6.72;;;1.65;;
78916;SDS011;68315;48.608;11.436;2023-09-18T12:24:22;4.95;;;1.60;;
78916;SDS011;68315;48.608;11.436;2023-09-18T12:26:51;6.00;;;1.60;;
78916;SDS011;68315;48.608;11.436;2023-09-18T12:29:17;12.93;;;1.80;;
78916;SDS011;68315;48.608;11.436;2023-09-18T12:31:42;5.45;;;1.40;;
78916;SDS011;68315;48.608;11.436;2023-09-18T12:34:16;4.38;;;1.40;;
78916;SDS011;68315;48.608;11.436;2023-09-18T12:36:43;6.47;;;1.50;;
78916;SDS011;68315;48.608;11.436;2023-09-18T12:39:12;3.50;;;1.60;;
78916;SDS011;68315;48.608;11.436;2023-09-18T12:41:38;5.63;;;1.65;;
78916;SDS011;68315;48.608;11.436;2023-09-18T12:44:05;7.70;;;1.70;;
78916;SDS011;68315;48.608;11.436;2023-09-18T12:46:31;8.38;;;1.67;;
78916;SDS011;68315;48.608;11.436;2023-09-18T12:48:56;3.38;;;1.50;;
78916;SDS011;68315;48.608;11.436;2023-09-18T12:51:28;6.20;;;1.83;;
78916;SDS011;68315;48.608;11.436;2023-09-18T12:54:02;5.05;;;1.90;;
78916;SDS011;68315;48.608;11.436;2023-09-18T12:56:31;6.75;;;1.90;;
78916;SDS011;68315;48.608;11.436;2023-09-18T12:58:57;6.82;;;2.00;;
78916;SDS011;68315;48.608;11.436;2023-09-18T13:01:23;5.65;;;1.80;;
78916;SDS011;68315;48.608;11.436;2023-09-18T13:03:49;5.45;;;2.10;;
78916;SDS011;68315;48.608;11.436;2023-09-18T13:06:17;4.17;;;1.60;;
78916;SDS011;68315;48.608;11.436;2023-09-18T13:08:44;3.08;;;1.52;;
78916;SDS011;68315;48.608;11.436;2023-09-18T13:11:10;4.75;;;2.00;;
78916;SDS011;68315;48.608;11.436;2023-09-18T13:13:37;4.38;;;1.60;;
78916;SDS011;68315;48.608;11.436;2023-09-18T13:16:06;4.03;;;1.83;;
78916;SDS011;68315;48.608;11.436;2023-09-18T13:18:33;7.72;;;1.70;;
78916;SDS011;68315;48.608;11.436;2023-09-18T13:20:59;4.53;;;1.80;;
78916;SDS011;68315;48.608;11.436;2023-09-18T13:23:28;5.18;;;1.98;;
78916;SDS011;68315;48.608;11.436;2023-09-18T13:26:00;4.15;;;1.70;;
78916;SDS011;68315;48.608;11.436;2023-09-18T13:28:26;6.63;;;2.25;;
78916;SDS011;68315;48.608;11.436;2023-09-18T13:30:52;5.47;;;1.88;;
78916;SDS011;68315;48.608;11.436;2023-09-18T13:33:17;5.55;;;2.00;;
78916;SDS011;68315;48.608;11.436;2023-09-18T13:35:44;5.75;;;1.60;;
78916;SDS011;68315;48.608;11.436;2023-09-18T13:38:10;6.32;;;1.50;;
78916;SDS011;68315;48.608;11.436;2023-09-18T13:40:40;4.03;;;1.50;;
78916;SDS011;68315;48.608;11.436;2023-09-18T13:43:06;5.10;;;1.60;;
78916;SDS011;68315;48.608;11.436;2023-09-18T13:45:35;5.40;;;1.55;;
78916;SDS011;68315;48.608;11.436;2023-09-18T13:48:01;4.65;;;1.30;;
78916;SDS011;68315;48.608;11.436;2023-09-18T13:50:28;2.88;;;1.30;;
78916;SDS011;68315;48.608;11.436;2023-09-18T13:52:53;4.85;;;1.50;;
78916;SDS011;68315;48.608;11.436;2023-09-18T13:55:19;4.75;;;1.70;;
78916;SDS011;68315;48.608;11.436;2023-09-18T13:57:44;4.38;;;1.50;;
78916;SDS011;68315;48.608;11.436;2023-09-18T14:00:09;3.00;;;1.30;;
78916;SDS011;68315;48.608;11.436;2023-09-18T14:02:37;2.58;;;1.33;;
78916;SDS011;68315;48.608;11.436;2023-09-18T14:05:03;3.40;;;1.52;;
78916;SDS011;68315;48.608;11.436;2023-09-18T14:07:29;2.83;;;1.30;;
78916;SDS011;68315;48.608;11.436;2023-09-18T14:09:55;3.65;;;1.70;;
78916;SDS011;68315;48.608;11.436;2023-09-18T14:12:20;3.90;;;1.10;;
78916;SDS011;68315;48.608;11.436;2023-09-18T14:14:45;1.35;;;1.08;;
78916;SDS011;68315;48.608;11.436;2023-09-18T14:17:11;3.08;;;1.35;;
78916;SDS011;68315;48.608;11.436;2023-09-18T14:19:37;2.25;;;1.00;;
78916;SDS011;68315;48.608;11.436;2023-09-18T14:22:03;2.20;;;1.17;;
78916;SDS011;68315;48.608;11.436;2023-09-18T14:24:33;1.63;;;0.90;;
78916;SDS011;68315;48.608;11.436;2023-09-18T14:27:01;1.65;;;1.05;;
78916;SDS011;68315;48.608;11.436;2023-09-18T14:29:28;3.72;;;1.40;;
78916;SDS011;68315;48.608;11.436;2023-09-18T14:31:55;1.48;;;1.05;;
78916;SDS011;68315;48.608;11.436;2023-09-18T14:34:21;1.55;;;1.05;;
78916;SDS011;68315;48.608;11.436;2023-09-18T14:36:46;2.03;;;1.38;;